createdAt,value
2019-03-22T00:02:18.627Z,23.55
2019-03-22T00:04:46.883Z,22.82
2019-03-22T00:07:15.778Z,24.48
2019-03-22T00:09:44.048Z,24.60
2019-03-22T00:12:12.380Z,25.24
2019-03-22T00:14:40.587Z,25.01
2019-03-22T00:17:08.881Z,25.17
2019-03-22T00:19:37.153Z,25.01
2019-03-22T00:22:05.414Z,24.93
2019-03-22T00:24:33.708Z,24.52
2019-03-22T00:27:01.975Z,24.03
2019-03-22T00:29:30.268Z,24.66
2019-03-22T00:31:58.532Z,25.35
2019-03-22T00:34:26.830Z,24.55
2019-03-22T00:36:55.114Z,23.61
2019-03-22T00:39:24.361Z,24.27
2019-03-22T00:41:52.653Z,23.86
2019-03-22T00:44:20.965Z,23.90
2019-03-22T00:46:49.233Z,23.56
2019-03-22T00:49:17.601Z,23.16
2019-03-22T00:51:45.881Z,23.63
2019-03-22T00:54:14.230Z,24.10
2019-03-22T00:56:43.202Z,23.19
2019-03-22T00:59:11.501Z,23.66
2019-03-22T01:01:39.866Z,23.58
2019-03-22T01:04:08.128Z,22.86
2019-03-22T01:06:36.567Z,23.05
2019-03-22T01:09:05.915Z,22.51
2019-03-22T01:11:34.241Z,22.59
2019-03-22T01:14:02.555Z,23.42
2019-03-22T01:16:30.877Z,23.49
2019-03-22T01:18:59.213Z,24.28
2019-03-22T01:21:27.472Z,24.57
2019-03-22T01:23:55.787Z,24.34
2019-03-22T01:26:24.051Z,24.93
2019-03-22T01:28:52.348Z,25.59
2019-03-22T01:31:20.606Z,26.16
2019-03-22T01:33:48.872Z,26.07
2019-03-22T01:36:17.171Z,25.90
2019-03-22T01:38:45.433Z,25.84
2019-03-22T01:41:13.776Z,25.63
2019-03-22T01:43:42.049Z,25.65
2019-03-22T01:46:10.328Z,26.11
2019-03-22T01:48:38.596Z,25.89
2019-03-22T01:51:06.855Z,26.14
2019-03-22T01:53:35.154Z,25.37
2019-03-22T01:56:03.411Z,25.51
2019-03-22T01:58:31.784Z,25.64
2019-03-22T02:01:00.154Z,25.93
2019-03-22T02:03:28.414Z,25.85
2019-03-22T02:05:56.705Z,26.12
2019-03-22T02:08:24.983Z,26.62
2019-03-22T02:10:53.252Z,26.12
2019-03-22T02:13:21.539Z,25.77
2019-03-22T02:15:49.795Z,25.40
2019-03-22T02:18:18.047Z,25.07
2019-03-22T02:20:46.324Z,25.63
2019-03-22T02:23:14.590Z,26.54
2019-03-22T02:25:42.851Z,26.15
2019-03-22T02:28:11.222Z,25.87
2019-03-22T02:30:39.486Z,25.35
2019-03-22T02:33:07.748Z,24.53
2019-03-22T02:35:36.022Z,25.42
2019-03-22T02:38:04.362Z,25.36
2019-03-22T02:40:32.630Z,25.42
2019-03-22T02:43:00.873Z,25.44
2019-03-22T02:45:29.153Z,25.39
2019-03-22T02:47:57.387Z,25.94
2019-03-22T02:50:25.653Z,26.03
2019-03-22T02:52:54.019Z,25.83
2019-03-22T02:55:22.294Z,25.80
2019-03-22T02:57:50.554Z,25.35
2019-03-22T03:00:19.292Z,25.66
2019-03-22T03:02:47.545Z,24.67
2019-03-22T03:05:17.273Z,25.09
2019-03-22T03:07:48.377Z,24.62
2019-03-22T03:10:17.034Z,25.23
2019-03-22T03:12:45.402Z,24.93
2019-03-22T03:15:17.650Z,25.04
2019-03-22T03:17:46.043Z,24.60
2019-03-22T03:20:16.925Z,23.55
2019-03-22T03:22:46.526Z,24.27
2019-03-22T03:25:15.249Z,24.60
2019-03-22T03:27:43.528Z,23.77
2019-03-22T03:30:20.717Z,24.54
2019-03-22T03:32:49.186Z,24.98
2019-03-22T03:35:17.980Z,24.51
2019-03-22T03:37:46.218Z,23.65
2019-03-22T03:40:15.138Z,23.94
2019-03-22T03:42:43.480Z,23.50
2019-03-22T03:45:20.593Z,23.97
2019-03-22T03:47:48.962Z,24.65
2019-03-22T03:50:17.242Z,24.43
2019-03-22T03:52:45.524Z,23.06
2019-03-22T03:55:13.860Z,23.67
2019-03-22T03:57:42.162Z,23.93
2019-03-22T04:00:10.473Z,24.31
2019-03-22T04:02:38.752Z,24.39
2019-03-22T04:05:07.183Z,25.14
2019-03-22T04:07:35.447Z,24.82
2019-03-22T04:10:07.193Z,24.54
2019-03-22T04:12:35.438Z,23.43
2019-03-22T04:15:07.273Z,23.88
2019-03-22T04:17:35.620Z,23.27
2019-03-22T04:20:05.709Z,24.06
2019-03-22T04:22:36.369Z,23.58
2019-03-22T04:25:05.917Z,24.02
2019-03-22T04:27:34.167Z,23.92
2019-03-22T04:30:02.434Z,24.02
2019-03-22T04:32:30.707Z,22.92
2019-03-22T04:34:58.979Z,22.95
2019-03-22T04:37:27.236Z,23.25
2019-03-22T04:39:55.494Z,23.42
2019-03-22T04:42:23.751Z,23.60
2019-03-22T04:44:52.035Z,23.92
2019-03-22T04:47:21.575Z,24.09
2019-03-22T04:49:50.393Z,24.00
2019-03-22T04:52:19.927Z,23.92
2019-03-22T04:54:49.570Z,22.89
2019-03-22T04:57:18.117Z,23.09
2019-03-22T04:59:47.458Z,22.47
2019-03-22T05:02:15.811Z,23.61
2019-03-22T05:04:45.308Z,23.85
2019-03-22T05:07:13.971Z,23.97
2019-03-22T05:09:43.012Z,23.46
2019-03-22T05:12:14.146Z,22.93
2019-03-22T05:14:42.452Z,22.64
2019-03-22T05:17:10.900Z,22.92
2019-03-22T05:19:42.155Z,22.42
2019-03-22T05:22:11.937Z,22.78
2019-03-22T05:24:41.581Z,23.19
2019-03-22T05:27:10.638Z,22.98
2019-03-22T05:29:39.523Z,23.31
2019-03-22T05:34:35.991Z,22.48
2019-03-22T05:37:05.023Z,22.73
2019-03-22T05:39:33.288Z,22.97
2019-03-22T05:42:01.575Z,22.85
2019-03-22T05:44:29.914Z,22.86
2019-03-22T05:46:58.551Z,21.90
2019-03-22T05:49:26.827Z,23.28
2019-03-22T05:51:55.093Z,23.21
2019-03-22T05:54:23.350Z,23.01
2019-03-22T05:56:51.613Z,22.77
2019-03-22T05:59:19.961Z,22.73
2019-03-22T06:01:48.248Z,22.84
2019-03-22T06:04:16.505Z,23.15
2019-03-22T06:06:44.776Z,22.59
2019-03-22T06:09:13.029Z,22.53
2019-03-22T06:11:41.315Z,23.02
2019-03-22T06:14:09.631Z,22.86
2019-03-22T06:16:37.907Z,22.54
2019-03-22T06:19:06.170Z,23.18
2019-03-22T06:21:34.429Z,22.74
2019-03-22T06:24:02.736Z,22.38
2019-03-22T06:26:30.999Z,21.65
2019-03-22T06:28:59.314Z,20.89
2019-03-22T06:31:27.607Z,21.14
2019-03-22T06:33:55.875Z,22.55
2019-03-22T06:36:24.313Z,22.65
2019-03-22T06:38:52.567Z,23.22
2019-03-22T06:41:20.824Z,23.46
2019-03-22T06:43:49.088Z,23.80
2019-03-22T06:46:17.362Z,24.07
2019-03-22T06:48:45.627Z,23.30
2019-03-22T06:51:13.914Z,23.62
2019-03-22T06:53:42.177Z,24.03
2019-03-22T06:56:10.421Z,24.69
2019-03-22T06:58:38.694Z,23.57
2019-03-22T07:01:06.950Z,22.93
2019-03-22T07:03:35.228Z,23.32
2019-03-22T07:06:03.500Z,23.23
2019-03-22T07:08:31.888Z,24.12
2019-03-22T07:11:00.153Z,24.37
2019-03-22T07:13:28.428Z,24.49
2019-03-22T07:15:56.762Z,24.23
2019-03-22T07:18:25.081Z,24.47
2019-03-22T07:20:53.315Z,24.02
2019-03-22T07:23:21.595Z,24.23
2019-03-22T07:25:49.875Z,24.41
2019-03-22T07:28:18.190Z,24.26
2019-03-22T07:30:46.496Z,25.25
2019-03-22T07:33:14.763Z,25.45
2019-03-22T07:35:43.281Z,24.64
2019-03-22T07:38:11.622Z,25.07
2019-03-22T07:40:39.887Z,25.40
2019-03-22T07:43:10.341Z,24.43
2019-03-22T07:45:38.678Z,25.46
2019-03-22T07:48:06.942Z,24.73
2019-03-22T07:50:35.198Z,25.19
2019-03-22T07:53:03.469Z,25.50
2019-03-22T07:55:31.743Z,25.87
2019-03-22T07:58:00.009Z,26.17
2019-03-22T08:00:31.087Z,26.16
2019-03-22T08:02:58.322Z,26.31
2019-03-22T08:05:26.695Z,26.31
2019-03-22T08:07:56.089Z,26.86
2019-03-22T08:10:24.690Z,26.72
2019-03-22T08:12:52.953Z,27.14
2019-03-22T08:15:29.771Z,26.77
2019-03-22T08:17:58.217Z,26.48
2019-03-22T08:20:26.599Z,26.06
2019-03-22T08:22:54.962Z,25.29
2019-03-22T08:25:23.246Z,24.65
2019-03-22T08:27:51.506Z,24.52
2019-03-22T08:30:19.794Z,24.95
2019-03-22T08:32:50.320Z,26.57
2019-03-22T08:35:18.045Z,27.14
2019-03-22T08:37:52.516Z,27.37
2019-03-22T08:40:16.333Z,27.57
2019-03-22T08:42:44.597Z,27.54
2019-03-22T08:45:13.142Z,27.25
2019-03-22T08:47:41.812Z,27.61
2019-03-22T08:50:10.154Z,26.63
2019-03-22T08:52:38.422Z,27.28
2019-03-22T08:55:06.835Z,27.64
2019-03-22T08:57:35.103Z,26.53
2019-03-22T09:00:05.273Z,26.34
2019-03-22T09:02:33.547Z,28.09
2019-03-22T09:05:02.158Z,28.27
2019-03-22T09:07:30.532Z,28.59
2019-03-22T09:09:58.817Z,28.65
2019-03-22T09:12:27.178Z,28.45
2019-03-22T09:14:55.399Z,28.26
2019-03-22T09:17:23.697Z,28.51
2019-03-22T09:19:51.954Z,28.26
2019-03-22T09:22:20.242Z,28.67
2019-03-22T09:24:48.505Z,28.84
2019-03-22T09:27:16.763Z,28.37
2019-03-22T09:29:47.313Z,27.75
2019-03-22T09:32:15.063Z,28.36
2019-03-22T09:34:43.318Z,29.79
2019-03-22T09:37:11.581Z,29.44
2019-03-22T09:39:39.890Z,29.59
2019-03-22T09:42:08.150Z,29.48
2019-03-22T09:44:43.380Z,29.49
2019-03-22T09:47:06.404Z,30.08
2019-03-22T09:49:34.683Z,29.77
2019-03-22T09:52:03.081Z,29.97
2019-03-22T09:54:31.364Z,29.30
2019-03-22T09:56:59.699Z,30.33
2019-03-22T09:59:27.970Z,30.72
2019-03-22T10:01:56.240Z,30.94
2019-03-22T10:04:24.575Z,30.77
2019-03-22T10:06:52.817Z,30.84
2019-03-22T10:09:21.039Z,30.64
2019-03-22T10:11:49.315Z,31.11
2019-03-22T10:14:17.669Z,30.44
2019-03-22T10:16:47.623Z,30.42
2019-03-22T10:19:15.970Z,30.29
2019-03-22T10:21:44.232Z,30.64
2019-03-22T10:24:12.493Z,29.45
2019-03-22T10:26:40.770Z,30.61
2019-03-22T10:29:09.122Z,30.34
2019-03-22T10:31:37.983Z,31.14
2019-03-22T10:34:06.422Z,30.53
2019-03-22T10:36:34.754Z,30.21
2019-03-22T10:39:04.450Z,31.51
2019-03-22T10:41:32.725Z,32.07
2019-03-22T10:44:01.044Z,31.63
2019-03-22T10:46:29.335Z,31.67
2019-03-22T10:48:57.541Z,31.52
2019-03-22T10:51:25.857Z,31.28
2019-03-22T10:53:54.195Z,31.54
2019-03-22T10:56:24.781Z,31.84
2019-03-22T10:58:52.439Z,32.12
2019-03-22T11:01:20.702Z,32.24
2019-03-22T11:03:49.153Z,33.22
2019-03-22T11:06:25.847Z,32.12
2019-03-22T11:08:47.725Z,32.46
2019-03-22T11:11:16.009Z,30.59
2019-03-22T11:13:44.281Z,30.44
2019-03-22T11:16:12.603Z,31.08
2019-03-22T11:18:40.860Z,31.27
2019-03-22T11:21:09.223Z,31.36
2019-03-22T11:23:37.492Z,31.74
2019-03-22T11:26:05.809Z,31.27
2019-03-22T11:28:34.063Z,31.17
2019-03-22T11:31:04.962Z,32.15
2019-03-22T11:33:32.341Z,31.15
2019-03-22T11:36:00.612Z,32.15
2019-03-22T11:38:28.949Z,32.85
2019-03-22T11:40:57.233Z,32.92
2019-03-22T11:43:25.672Z,31.96
2019-03-22T11:45:54.165Z,33.18
2019-03-22T11:48:22.594Z,33.22
2019-03-22T11:50:51.045Z,33.32
2019-03-22T11:53:19.344Z,32.65
2019-03-22T11:55:47.719Z,33.89
2019-03-22T11:58:16.001Z,35.43
2019-03-22T12:00:44.272Z,36.23
2019-03-22T12:03:12.574Z,36.38
2019-03-22T12:05:40.898Z,36.88
2019-03-22T12:08:09.121Z,36.44
2019-03-22T12:10:37.396Z,37.47
2019-03-22T12:13:05.727Z,38.08
2019-03-22T12:15:34.032Z,37.87
2019-03-22T12:18:02.420Z,36.65
2019-03-22T12:20:30.667Z,37.56
2019-03-22T12:22:58.980Z,37.84
2019-03-22T12:25:27.323Z,38.27
2019-03-22T12:27:55.585Z,38.05
2019-03-22T12:30:23.860Z,38.66
2019-03-22T12:32:52.217Z,38.05
2019-03-22T12:35:20.595Z,38.39
2019-03-22T12:37:48.847Z,39.65
2019-03-22T12:40:23.889Z,39.17
2019-03-22T12:42:52.153Z,37.90
2019-03-22T12:45:28.348Z,38.77
2019-03-22T12:47:56.619Z,40.71
2019-03-22T12:50:26.486Z,38.36
2019-03-22T12:52:54.779Z,39.43
2019-03-22T12:55:23.581Z,39.49
2019-03-22T12:57:51.855Z,39.53
2019-03-22T13:00:24.975Z,39.70
2019-03-22T13:02:53.689Z,41.60
2019-03-22T13:05:22.817Z,40.75
2019-03-22T13:07:51.531Z,38.73
2019-03-22T13:10:25.406Z,40.20
2019-03-22T13:12:53.797Z,40.55
2019-03-22T13:15:22.056Z,40.92
2019-03-22T13:17:50.344Z,40.46
2019-03-22T13:20:18.612Z,40.88
2019-03-22T13:22:46.897Z,40.68
2019-03-22T13:25:16.334Z,39.01
2019-03-22T13:27:44.605Z,40.34
2019-03-22T13:30:30.888Z,40.79
2019-03-22T13:32:59.604Z,38.56
2019-03-22T13:35:27.866Z,38.69
2019-03-22T13:37:56.125Z,39.48
2019-03-22T13:40:33.941Z,39.84
2019-03-22T13:43:10.752Z,39.99
2019-03-22T13:45:39.086Z,40.24
2019-03-22T13:48:07.332Z,39.68
2019-03-22T13:50:37.418Z,39.48
2019-03-22T13:53:05.701Z,40.01
2019-03-22T13:55:33.992Z,40.54
2019-03-22T13:58:02.292Z,38.70
2019-03-22T14:00:30.551Z,39.57
2019-03-22T14:03:03.115Z,40.04
2019-03-22T14:05:28.840Z,38.48
2019-03-22T14:07:57.145Z,36.76
2019-03-22T14:10:29.562Z,38.02
2019-03-22T14:12:59.596Z,38.42
2019-03-22T14:15:30.457Z,39.87
2019-03-22T14:17:58.799Z,40.09
2019-03-22T14:20:27.090Z,39.93
2019-03-22T14:22:55.372Z,38.97
2019-03-22T14:25:23.722Z,38.79
2019-03-22T14:27:52.654Z,36.90
2019-03-22T14:30:20.925Z,37.79
2019-03-22T14:32:49.226Z,37.05
2019-03-22T14:35:17.488Z,37.56
2019-03-22T14:37:45.752Z,37.64
2019-03-22T14:40:15.705Z,37.45
2019-03-22T14:42:44.233Z,37.49
2019-03-22T14:45:12.756Z,36.30
2019-03-22T14:47:41.049Z,38.24
2019-03-22T14:50:12.365Z,40.13
2019-03-22T14:52:40.637Z,41.17
2019-03-22T14:55:10.718Z,42.59
2019-03-22T14:57:48.162Z,44.16
2019-03-22T15:00:11.831Z,43.73
2019-03-22T15:02:40.102Z,44.75
2019-03-22T15:05:08.652Z,44.75
2019-03-22T15:07:36.937Z,45.61
2019-03-22T15:10:09.945Z,43.08
2019-03-22T15:12:38.296Z,42.36
2019-03-22T15:15:24.871Z,46.42
2019-03-22T15:18:03.271Z,47.79
2019-03-22T15:20:41.759Z,47.18
2019-03-22T15:23:13.408Z,45.50
2019-03-22T15:25:52.367Z,44.07
2019-03-22T15:28:24.674Z,45.71
2019-03-22T15:31:11.016Z,45.85
2019-03-22T15:33:46.881Z,47.05
2019-03-22T15:36:33.075Z,46.98
2019-03-22T15:39:19.379Z,46.99
2019-03-22T15:41:47.776Z,48.01
2019-03-22T15:44:16.143Z,46.74
2019-03-22T15:46:44.523Z,47.35
2019-03-22T15:49:12.789Z,47.35
2019-03-22T15:51:41.067Z,45.43
2019-03-22T15:54:09.365Z,47.78
2019-03-22T15:56:38.586Z,47.78
2019-03-22T15:59:06.913Z,46.19
2019-03-22T16:01:35.778Z,45.40
2019-03-22T16:04:04.114Z,45.40
2019-03-22T16:06:32.492Z,46.50
2019-03-22T16:09:00.825Z,46.12
2019-03-22T16:11:29.116Z,45.41
2019-03-22T16:13:57.378Z,44.98
2019-03-22T16:16:25.733Z,44.98
2019-03-22T16:18:53.994Z,45.47
2019-03-22T16:21:22.298Z,45.30
2019-03-22T16:23:50.596Z,46.14
2019-03-22T16:26:18.866Z,46.24
2019-03-22T16:28:47.151Z,44.67
2019-03-22T16:31:15.447Z,44.93
2019-03-22T16:33:43.731Z,43.51
2019-03-22T16:36:12.029Z,43.20
2019-03-22T16:38:40.316Z,42.51
2019-03-22T16:41:08.644Z,42.91
2019-03-22T16:43:36.965Z,43.18
2019-03-22T16:46:05.358Z,41.70
2019-03-22T16:48:33.662Z,43.36
2019-03-22T16:51:01.924Z,43.70
2019-03-22T16:53:30.248Z,43.92
2019-03-22T16:55:58.548Z,40.52
2019-03-22T16:58:26.840Z,38.34
2019-03-22T17:00:55.198Z,36.10
2019-03-22T17:03:23.471Z,36.06
2019-03-22T17:05:51.752Z,35.71
2019-03-22T17:08:20.158Z,35.85
2019-03-22T17:10:48.529Z,34.97
2019-03-22T17:13:16.840Z,36.52
2019-03-22T17:15:45.119Z,35.29
2019-03-22T17:18:15.055Z,35.97
2019-03-22T17:20:43.309Z,35.53
2019-03-22T17:23:11.586Z,35.47
2019-03-22T17:25:39.866Z,35.52
2019-03-22T17:28:08.154Z,35.63
2019-03-22T17:30:36.411Z,34.79
2019-03-22T17:33:08.062Z,35.76
2019-03-22T17:35:36.478Z,34.79
2019-03-22T17:38:04.823Z,35.74
2019-03-22T17:40:33.033Z,34.86
2019-03-22T17:43:01.323Z,34.72
2019-03-22T17:45:29.587Z,35.50
2019-03-22T17:47:57.849Z,34.08
2019-03-22T17:50:26.158Z,34.80
2019-03-22T17:52:54.433Z,34.25
2019-03-22T17:55:22.692Z,33.99
2019-03-22T17:57:50.984Z,33.52
2019-03-22T18:00:26.997Z,33.85
2019-03-22T18:02:55.325Z,33.63
2019-03-22T18:05:23.613Z,34.26
2019-03-22T18:07:51.894Z,34.81
2019-03-22T18:10:20.164Z,33.34
2019-03-22T18:12:48.549Z,33.82
2019-03-22T18:15:18.057Z,34.06
2019-03-22T18:17:46.542Z,33.83
2019-03-22T18:20:15.861Z,33.78
2019-03-22T18:22:44.128Z,32.93
2019-03-22T18:25:12.581Z,33.14
2019-03-22T18:27:40.878Z,33.35
2019-03-22T18:30:13.526Z,32.94
2019-03-22T18:32:41.821Z,33.01
2019-03-22T18:35:10.542Z,33.16
2019-03-22T18:37:38.881Z,33.95
2019-03-22T18:40:09.385Z,31.82
2019-03-22T18:42:37.706Z,32.29
2019-03-22T18:45:08.385Z,33.38
2019-03-22T18:47:36.772Z,33.08
2019-03-22T18:50:09.762Z,33.75
2019-03-22T18:52:38.036Z,32.97
2019-03-22T18:55:07.225Z,32.99
2019-03-22T18:57:36.302Z,32.75
2019-03-22T19:00:10.174Z,32.55
2019-03-22T19:02:38.446Z,32.61
2019-03-22T19:05:07.756Z,32.53
2019-03-22T19:07:36.016Z,32.43
2019-03-22T19:10:07.091Z,31.62
2019-03-22T19:12:35.371Z,30.94
2019-03-22T19:15:04.754Z,31.83
2019-03-22T19:17:35.422Z,31.62
2019-03-22T19:20:08.178Z,30.60
2019-03-22T19:22:36.530Z,31.30
2019-03-22T19:25:05.930Z,30.74
2019-03-22T19:27:34.208Z,31.88
2019-03-22T19:30:03.155Z,32.04
2019-03-22T19:32:31.493Z,32.19
2019-03-22T19:34:59.892Z,30.52
2019-03-22T19:37:28.220Z,30.09
2019-03-22T19:39:56.496Z,29.72
2019-03-22T19:42:24.785Z,29.54
2019-03-22T19:44:53.067Z,29.04
2019-03-22T19:47:23.681Z,30.91
2019-03-22T19:49:51.344Z,30.99
2019-03-22T19:52:19.625Z,30.80
2019-03-22T19:54:47.919Z,31.21
2019-03-22T19:57:16.205Z,30.09
2019-03-22T19:59:44.490Z,29.67
2019-03-22T20:02:12.883Z,29.85
2019-03-22T20:04:41.164Z,30.79
2019-03-22T20:07:09.506Z,30.57
2019-03-22T20:09:37.793Z,30.69
2019-03-22T20:12:06.060Z,30.71
2019-03-22T20:14:34.332Z,30.34
2019-03-22T20:17:02.615Z,30.11
2019-03-22T20:19:30.905Z,29.26
2019-03-22T20:21:59.194Z,30.07
2019-03-22T20:24:27.534Z,30.05
2019-03-22T20:26:55.931Z,30.21
2019-03-22T20:29:24.219Z,30.38
2019-03-22T20:31:52.743Z,30.18
2019-03-22T20:34:21.028Z,29.97
2019-03-22T20:36:49.325Z,29.40
2019-03-22T20:39:17.640Z,30.16
2019-03-22T20:41:45.992Z,29.54
2019-03-22T20:44:14.355Z,30.15
2019-03-22T20:46:42.645Z,30.15
2019-03-22T20:49:10.958Z,30.00
2019-03-22T20:51:39.240Z,28.82
2019-03-22T20:54:07.511Z,29.84
2019-03-22T20:56:35.783Z,30.88
2019-03-22T20:59:04.150Z,28.59
2019-03-22T21:01:32.436Z,28.92
2019-03-22T21:04:00.698Z,29.26
2019-03-22T21:06:28.975Z,29.26
2019-03-22T21:08:57.267Z,28.14
2019-03-22T21:11:26.735Z,26.77
2019-03-22T21:13:54.992Z,28.62
2019-03-22T21:16:23.258Z,28.70
2019-03-22T21:18:51.532Z,28.80
2019-03-22T21:21:19.805Z,28.59
2019-03-22T21:23:48.090Z,28.36
2019-03-22T21:26:16.391Z,28.57
2019-03-22T21:28:44.667Z,27.72
2019-03-22T21:31:13.002Z,26.58
2019-03-22T21:33:41.285Z,28.12
2019-03-22T21:36:09.609Z,27.54
2019-03-22T21:38:37.964Z,26.99
2019-03-22T21:41:06.240Z,27.70
2019-03-22T21:43:34.503Z,26.86
2019-03-22T21:46:02.867Z,28.47
2019-03-22T21:48:31.126Z,28.03
2019-03-22T21:50:59.392Z,27.50
2019-03-22T21:53:27.659Z,27.87
2019-03-22T21:55:55.924Z,28.50
2019-03-22T21:58:24.300Z,27.72
2019-03-22T22:00:52.669Z,26.92
2019-03-22T22:03:20.961Z,26.15
2019-03-22T22:05:49.322Z,27.28
2019-03-22T22:08:17.589Z,27.61
2019-03-22T22:10:45.877Z,28.72
2019-03-22T22:13:14.154Z,28.79
2019-03-22T22:15:42.418Z,26.34
2019-03-22T22:18:10.694Z,25.80
2019-03-22T22:20:38.981Z,27.13
2019-03-22T22:23:07.261Z,26.34
2019-03-22T22:25:35.559Z,25.95
2019-03-22T22:28:03.854Z,25.77
2019-03-22T22:30:32.153Z,25.89
2019-03-22T22:33:00.415Z,25.32
2019-03-22T22:35:28.677Z,25.49
2019-03-22T22:37:57.032Z,24.77
2019-03-22T22:40:25.324Z,25.93
2019-03-22T22:42:53.608Z,26.23
2019-03-22T22:45:21.852Z,25.60
2019-03-22T22:47:50.128Z,26.58
2019-03-22T22:50:18.423Z,27.51
2019-03-22T22:52:49.269Z,27.58
2019-03-22T22:55:17.550Z,27.99
2019-03-22T22:57:45.862Z,26.67
2019-03-22T23:00:16.550Z,27.57
2019-03-22T23:02:45.263Z,26.53
2019-03-22T23:05:13.600Z,26.95
2019-03-22T23:07:41.879Z,28.01
2019-03-22T23:10:12.616Z,25.83
2019-03-22T23:12:40.266Z,25.65
2019-03-22T23:15:09.294Z,25.82
2019-03-22T23:17:37.555Z,27.29
2019-03-22T23:20:07.146Z,27.56
2019-03-22T23:22:35.418Z,27.39
2019-03-22T23:25:04.880Z,27.61
2019-03-22T23:27:33.159Z,25.27
2019-03-22T23:30:01.435Z,25.78
2019-03-22T23:32:29.708Z,26.20
2019-03-22T23:34:59.173Z,25.91
2019-03-22T23:37:27.836Z,26.14
2019-03-22T23:39:56.092Z,26.11
2019-03-22T23:42:24.380Z,25.24
2019-03-22T23:44:52.649Z,25.79
2019-03-22T23:47:20.960Z,26.80
2019-03-22T23:49:49.250Z,25.57
2019-03-22T23:52:17.570Z,26.14
2019-03-22T23:54:45.849Z,26.14
2019-03-22T23:57:14.131Z,26.29
2019-03-22T23:59:42.386Z,25.53
